Time;durP1;ratioP1;P1;durP2;ratioP2;P2;SDS_P1;SDS_P2;PMS_P1;PMS_P2;Temp;Humidity;BMP_temperature;BMP_pressure;BME280_temperature;BME280_humidity;BME280_pressure;Samples;Min_cycle;Max_cycle;Signal;HPM_P1;HPM_P2
2022/07/11 00:02:19;;;;;;;7.03;2.00;;;18.00;99.90;;;;;;5060136;28;20846;-57
2022/07/11 00:04:46;;;;;;;6.00;1.80;;;17.90;99.90;;;;;;5062971;28;20403;-57
2022/07/11 00:07:13;;;;;;;6.10;1.90;;;18.00;99.90;;;;;;5063805;28;20387;-57
2022/07/11 00:09:38;;;;;;;5.78;1.95;;;17.90;99.90;;;;;;5060410;28;20388;-57
2022/07/11 00:12:05;;;;;;;5.70;2.10;;;17.80;1.00;;;;;;5064830;28;20394;-57
2022/07/11 00:14:31;;;;;;;6.03;1.95;;;17.70;1.00;;;;;;5060578;28;20409;-57
2022/07/11 00:16:57;;;;;;;6.97;2.40;;;17.70;1.00;;;;;;5062427;28;20428;-57
2022/07/11 00:19:23;;;;;;;6.60;2.30;;;17.60;1.00;;;;;;5060583;28;20925;-57
2022/07/11 00:21:52;;;;;;;6.68;2.10;;;17.60;1.00;;;;;;5061623;28;20516;-57
2022/07/11 00:24:19;;;;;;;7.40;2.20;;;17.60;1.00;;;;;;5059422;28;20390;-57
2022/07/11 00:26:46;;;;;;;6.30;2.28;;;17.50;1.00;;;;;;5061822;28;20411;-58
2022/07/11 00:29:12;;;;;;;5.93;2.40;;;17.50;1.00;;;;;;5063212;28;20388;-58
2022/07/11 00:31:38;;;;;;;5.72;2.28;;;17.40;1.00;;;;;;5059039;28;20399;-57
2022/07/11 00:34:04;;;;;;;6.30;2.30;;;17.40;1.00;;;;;;5059499;28;20724;-57
2022/07/11 00:36:31;;;;;;;5.50;2.17;;;17.30;1.00;;;;;;5065126;28;20400;-57
2022/07/11 00:38:57;;;;;;;7.30;2.65;;;17.30;99.90;;;;;;5062770;28;20385;-57
2022/07/11 00:41:23;;;;;;;6.80;2.95;;;17.20;99.90;;;;;;5063676;28;20753;-57
2022/07/11 00:43:58;;;;;;;9.30;3.03;;;17.20;99.90;;;;;;5067960;28;20382;-57
2022/07/11 00:46:25;;;;;;;7.90;2.60;;;17.10;1.00;;;;;;5067044;28;20384;-57
2022/07/11 00:48:51;;;;;;;7.20;2.50;;;17.10;1.00;;;;;;5066020;28;20491;-57
2022/07/11 00:51:21;;;;;;;6.30;2.50;;;17.10;1.00;;;;;;5067173;28;20767;-57
2022/07/11 00:53:51;;;;;;;6.43;2.60;;;17.10;99.90;;;;;;5067759;28;20390;-57
2022/07/11 00:56:19;;;;;;;6.70;2.70;;;17.20;99.90;;;;;;5065111;28;20502;-57
2022/07/11 00:58:45;;;;;;;6.50;2.70;;;17.30;99.90;;;;;;5067678;28;20379;-58
2022/07/11 01:01:11;;;;;;;7.10;2.78;;;17.30;99.90;;;;;;5067698;28;20386;-57
2022/07/11 01:03:39;;;;;;;7.28;2.50;;;17.40;99.90;;;;;;5066850;28;20476;-57
2022/07/11 01:06:06;;;;;;;7.63;2.67;;;17.30;99.90;;;;;;5067490;28;20394;-57
2022/07/11 01:08:32;;;;;;;7.25;3.10;;;17.30;99.90;;;;;;5066774;28;20425;-57
2022/07/11 01:11:26;;;;;;;7.30;3.00;;;17.30;99.90;;;;;;5069638;28;20376;-57
2022/07/11 01:13:51;;;;;;;7.40;2.80;;;17.40;99.90;;;;;;5069820;28;20466;-57
2022/07/11 01:16:19;;;;;;;7.10;2.50;;;17.30;99.90;;;;;;5070639;28;20846;-57
2022/07/11 01:18:47;;;;;;;6.30;2.90;;;15.40;99.90;;;;;;5071272;28;20394;-57
2022/07/11 01:21:23;;;;;;;6.18;2.70;;;17.30;99.90;;;;;;5071232;28;20430;-58
2022/07/11 01:23:50;;;;;;;6.73;2.93;;;17.30;99.90;;;;;;5071101;28;20462;-57
2022/07/11 01:26:17;;;;;;;7.22;3.10;;;17.20;99.90;;;;;;5070326;28;20496;-57
2022/07/11 01:28:43;;;;;;;6.50;2.53;;;17.20;99.90;;;;;;5070860;28;20384;-57
2022/07/11 01:31:09;;;;;;;8.57;3.00;;;17.20;99.90;;;;;;5070853;28;20488;-58
2022/07/11 01:33:34;;;;;;;6.50;3.07;;;17.20;99.90;;;;;;5069800;28;20384;-57
2022/07/11 01:36:01;;;;;;;7.30;2.78;;;17.20;99.90;;;;;;5070631;28;20403;-57
2022/07/11 01:38:27;;;;;;;6.40;2.60;;;17.20;1.00;;;;;;5070287;28;20376;-57
2022/07/11 01:40:53;;;;;;;6.57;2.70;;;17.20;99.90;;;;;;5070822;28;20917;-57
2022/07/11 01:43:18;;;;;;;6.57;2.80;;;17.10;1.00;;;;;;5070234;28;20383;-57
2022/07/11 01:45:44;;;;;;;8.13;3.00;;;17.20;1.00;;;;;;5070914;28;20390;-57
2022/07/11 01:48:09;;;;;;;7.30;3.10;;;17.20;1.00;;;;;;5070872;28;20892;-57
2022/07/11 01:50:35;;;;;;;6.77;2.80;;;17.10;1.00;;;;;;5070406;28;20448;-57
2022/07/11 01:53:02;;;;;;;7.00;3.00;;;17.20;1.00;;;;;;5070830;28;20463;-57
2022/07/11 01:55:27;;;;;;;7.15;3.13;;;17.10;1.00;;;;;;5069923;28;20391;-57
2022/07/11 01:57:53;;;;;;;7.30;3.25;;;17.10;1.00;;;;;;5070624;28;20376;-57
2022/07/11 02:00:19;;;;;;;7.63;2.80;;;17.10;1.00;;;;;;5069749;28;20379;-57
2022/07/11 02:02:45;;;;;;;6.90;3.07;;;17.10;1.00;;;;;;5070532;28;20908;-57
2022/07/11 02:05:10;;;;;;;6.90;3.00;;;17.20;1.00;;;;;;5070263;28;20693;-57
2022/07/11 02:10:20;;;;;;;6.88;2.92;;;17.20;1.00;;;;;;5067665;28;20446;-57
2022/07/11 02:12:46;;;;;;;7.10;3.20;;;17.10;1.00;;;;;;5070395;28;20407;-57
2022/07/11 02:15:12;;;;;;;7.45;3.10;;;17.10;1.00;;;;;;5070347;28;20376;-57
2022/07/11 02:17:37;;;;;;;7.93;3.15;;;17.10;1.00;;;;;;5069433;28;20376;-57
2022/07/11 02:20:03;;;;;;;6.70;2.97;;;17.00;10.80;;;;;;5069746;28;20387;-57
2022/07/11 02:22:29;;;;;;;6.30;2.70;;;17.00;99.90;;;;;;5068968;28;20404;-57
2022/07/11 02:24:55;;;;;;;7.32;3.30;;;17.00;99.90;;;;;;5066762;28;20400;-58
2022/07/11 02:27:21;;;;;;;7.63;3.00;;;17.10;99.90;;;;;;5067101;28;20408;-57
2022/07/11 02:29:47;;;;;;;7.00;3.17;;;17.10;99.90;;;;;;5070255;28;20383;-57
2022/07/11 02:32:12;;;;;;;6.90;3.40;;;17.10;99.90;;;;;;5071099;28;20493;-58
2022/07/11 02:34:38;;;;;;;8.32;3.45;;;17.20;99.90;;;;;;5070528;28;20391;-58
2022/07/11 02:37:05;;;;;;;8.27;3.40;;;17.30;1.00;;;;;;5076393;28;20916;-58
2022/07/11 02:39:31;;;;;;;8.80;3.17;;;17.30;1.00;;;;;;5068607;28;20880;-57
2022/07/11 02:41:56;;;;;;;7.70;3.45;;;17.30;1.00;;;;;;5069698;28;20426;-57
2022/07/11 02:44:22;;;;;;;7.10;3.13;;;17.30;1.00;;;;;;5070579;28;20378;-57
2022/07/11 02:46:48;;;;;;;7.72;3.80;;;17.20;99.90;;;;;;5070321;28;20392;-57
2022/07/11 02:49:13;;;;;;;7.60;3.53;;;17.20;99.90;;;;;;5068793;28;20398;-57
2022/07/11 02:51:39;;;;;;;7.00;3.30;;;17.10;1.00;;;;;;5068389;28;20575;-57
2022/07/11 02:54:04;;;;;;;11.10;3.70;;;18.10;1.00;;;;;;5068876;28;20384;-56
2022/07/11 02:56:30;;;;;;;7.22;3.38;;;17.00;21.00;;;;;;5068101;28;20548;-57
2022/07/11 02:58:56;;;;;;;8.55;3.42;;;17.00;99.90;;;;;;5069046;28;20717;-57
2022/07/11 03:01:22;;;;;;;8.40;3.80;;;17.10;11.40;;;;;;5067901;28;20403;-57
2022/07/11 03:03:47;;;;;;;7.55;3.92;;;17.10;99.90;;;;;;5068706;28;20380;-57
2022/07/11 03:06:13;;;;;;;7.90;3.70;;;17.10;99.90;;;;;;5069088;28;20380;-55
2022/07/11 03:08:39;;;;;;;7.27;3.57;;;17.10;99.90;;;;;;5068004;28;20458;-55
2022/07/11 03:11:05;;;;;;;11.98;4.43;;;17.10;99.90;;;;;;5068587;28;20388;-58
2022/07/11 03:13:31;;;;;;;8.20;4.72;;;17.10;1.00;;;;;;5067969;28;20388;-57
2022/07/11 03:15:57;;;;;;;10.03;4.40;;;17.10;14.30;;;;;;5070481;28;20404;-57
2022/07/11 03:18:22;;;;;;;7.03;3.47;;;17.20;1.00;;;;;;5083289;28;20402;-57
2022/07/11 03:20:48;;;;;;;9.05;3.70;;;17.20;1.00;;;;;;5087748;28;20499;-57
2022/07/11 03:23:13;;;;;;;7.27;3.50;;;17.20;12.00;;;;;;5070220;28;20457;-58
2022/07/11 03:25:39;;;;;;;6.90;3.50;;;17.30;1.00;;;;;;5064172;28;20425;-57
2022/07/11 03:28:05;;;;;;;7.70;4.20;;;17.20;1.00;;;;;;5069165;28;20487;-57
2022/07/11 03:30:31;;;;;;;8.80;3.75;;;17.30;99.90;;;;;;5068281;28;20416;-57
2022/07/11 03:32:57;;;;;;;8.82;4.00;;;17.30;1.00;;;;;;5068301;28;20484;-58
2022/07/11 03:35:40;;;;;;;8.70;3.80;;;17.20;1.00;;;;;;5066180;28;20407;-57
2022/07/11 03:38:06;;;;;;;7.33;3.70;;;17.20;1.00;;;;;;5064102;28;20878;-57
2022/07/11 03:40:32;;;;;;;7.70;3.70;;;17.20;1.00;;;;;;5067749;28;20391;-57
2022/07/11 03:42:57;;;;;;;8.80;4.07;;;17.20;1.00;;;;;;5082534;28;20488;-57
2022/07/11 03:45:23;;;;;;;9.18;4.50;;;17.20;1.00;;;;;;5087699;28;20405;-57
2022/07/11 03:47:49;;;;;;;8.30;4.25;;;17.20;1.00;;;;;;5072399;28;20403;-57
2022/07/11 03:50:15;;;;;;;8.50;4.20;;;17.20;99.20;;;;;;5063991;28;20396;-57
2022/07/11 03:52:41;;;;;;;8.77;4.00;;;17.30;1.00;;;;;;5065559;28;20388;-57
2022/07/11 03:55:07;;;;;;;8.10;3.90;;;17.40;1.00;;;;;;5061405;28;20417;-57
2022/07/11 03:57:36;;;;;;;8.25;4.03;;;17.50;99.90;;;;;;5067749;28;20442;-57
2022/07/11 04:00:05;;;;;;;8.35;3.80;;;17.50;99.90;;;;;;5068331;28;20400;-57
2022/07/11 04:02:31;;;;;;;8.13;4.10;;;17.50;99.90;;;;;;5067868;28;20391;-58
2022/07/11 04:04:57;;;;;;;10.38;4.30;;;17.50;99.90;;;;;;5068390;28;20380;-57
2022/07/11 04:07:22;;;;;;;8.20;4.37;;;17.50;99.90;;;;;;5069392;28;20387;-57
2022/07/11 04:09:48;;;;;;;8.23;4.40;;;17.50;99.90;;;;;;5068924;28;20851;-57
2022/07/11 04:12:14;;;;;;;10.23;3.83;;;17.30;1.00;;;;;;5076629;28;20459;-57
2022/07/11 04:14:39;;;;;;;8.70;4.70;;;17.30;1.00;;;;;;5077997;28;20435;-57
2022/07/11 04:17:05;;;;;;;9.02;4.43;;;17.30;99.90;;;;;;5078790;28;20895;-58
2022/07/11 04:19:31;;;;;;;9.10;4.83;;;17.30;99.90;;;;;;5078919;28;20890;-57
2022/07/11 04:21:58;;;;;;;8.10;4.03;;;17.30;99.90;;;;;;5076597;28;20425;-57
2022/07/11 04:24:24;;;;;;;8.48;4.63;;;17.40;99.90;;;;;;5078650;28;20411;-57
2022/07/11 04:26:49;;;;;;;10.90;5.10;;;17.20;99.90;;;;;;5081253;28;20410;-57
2022/07/11 04:29:15;;;;;;;9.20;4.80;;;17.20;1.00;;;;;;5079382;28;20394;-57
2022/07/11 04:31:41;;;;;;;10.95;5.35;;;17.40;37.80;;;;;;5064528;28;20662;-57
2022/07/11 04:34:06;;;;;;;9.50;5.23;;;17.30;99.60;;;;;;5063576;28;20399;-57
2022/07/11 04:36:32;;;;;;;8.93;5.18;;;17.40;99.90;;;;;;5066427;28;20445;-57
2022/07/11 04:38:58;;;;;;;8.00;4.57;;;17.50;99.90;;;;;;5077615;28;20405;-57
2022/07/11 04:41:24;;;;;;;8.30;4.50;;;17.50;1.00;;;;;;5072616;28;20390;-57
2022/07/11 04:43:49;;;;;;;8.65;4.65;;;17.60;99.90;;;;;;5073906;28;20390;-57
2022/07/11 04:46:15;;;;;;;10.20;4.90;;;17.60;1.00;;;;;;5088524;28;20450;-57
2022/07/11 04:48:41;;;;;;;8.97;4.90;;;17.70;1.00;;;;;;5089664;28;20431;-57
2022/07/11 04:51:06;;;;;;;8.73;4.63;;;17.70;99.90;;;;;;5087598;28;20396;-57
2022/07/11 04:53:33;;;;;;;10.70;5.70;;;17.90;99.90;;;;;;5082343;28;20430;-57
2022/07/11 04:55:59;;;;;;;8.68;4.78;;;17.90;95.40;;;;;;5066661;28;20538;-57
2022/07/11 04:58:24;;;;;;;8.07;4.60;;;18.00;1.00;;;;;;5067848;28;20820;-57
2022/07/11 05:00:51;;;;;;;9.32;4.43;;;18.00;1.00;;;;;;5068592;28;20415;-57
2022/07/11 05:03:18;;;;;;;8.65;4.63;;;18.00;55.50;;;;;;5069856;28;20414;-58
2022/07/11 05:05:44;;;;;;;9.90;4.93;;;18.20;1.00;;;;;;5075882;28;20478;-57
2022/07/11 05:08:10;;;;;;;9.20;4.70;;;18.30;1.00;;;;;;5090872;28;20455;-57
2022/07/11 05:10:36;;;;;;;9.50;4.53;;;18.30;1.00;;;;;;5081443;28;20810;-57
2022/07/11 05:13:02;;;;;;;9.32;4.80;;;18.40;1.00;;;;;;5087239;28;20432;-57
2022/07/11 05:15:28;;;;;;;9.57;4.70;;;18.40;1.00;;;;;;5083100;28;20379;-57
2022/07/11 05:17:54;;;;;;;9.57;4.80;;;18.60;1.00;;;;;;5083075;28;20413;-59
2022/07/11 05:20:19;;;;;;;8.05;4.63;;;18.80;99.90;;;;;;5091044;28;20922;-57
2022/07/11 05:22:45;;;;;;;12.63;6.33;;;18.80;99.90;;;;;;5078891;28;22017;-57
2022/07/11 05:25:11;;;;;;;11.00;5.00;;;18.90;99.90;;;;;;5083388;28;20402;-57
2022/07/11 05:27:37;;;;;;;7.78;4.70;;;18.90;99.90;;;;;;5081973;28;20402;-57
2022/07/11 05:30:03;;;;;;;9.90;5.00;;;19.00;99.90;;;;;;5073040;28;20418;-57
2022/07/11 05:32:29;;;;;;;8.50;4.90;;;18.90;99.90;;;;;;5072247;28;20395;-57
2022/07/11 05:34:58;;;;;;;8.98;4.32;;;19.00;99.90;;;;;;5081052;28;20461;-59
2022/07/11 05:37:24;;;;;;;9.23;4.65;;;19.00;97.70;;;;;;5074907;28;20458;-57
2022/07/11 05:39:50;;;;;;;10.48;4.30;;;19.10;99.90;;;;;;5087006;28;20425;-58
2022/07/11 05:42:16;;;;;;;9.85;4.25;;;19.40;19.30;;;;;;5070924;28;20400;-57
2022/07/11 05:44:42;;;;;;;8.32;4.25;;;19.40;1.00;;;;;;5072760;28;20874;-57
2022/07/11 05:47:08;;;;;;;9.00;4.43;;;19.50;1.00;;;;;;5084024;28;20891;-57
2022/07/11 05:49:33;;;;;;;9.75;4.60;;;19.40;1.00;;;;;;5078644;28;20388;-57
2022/07/11 05:51:59;;;;;;;9.70;4.80;;;19.50;1.00;;;;;;5080823;28;20476;-57
2022/07/11 05:54:25;;;;;;;9.95;4.72;;;19.30;1.00;;;;;;5087307;28;20495;-57
2022/07/11 05:56:51;;;;;;;9.37;4.77;;;19.20;1.00;;;;;;5086697;28;20774;-57
2022/07/11 05:59:17;;;;;;;10.40;4.60;;;19.10;1.00;;;;;;5076754;28;20396;-58
2022/07/11 06:01:43;;;;;;;8.52;4.80;;;19.20;1.00;;;;;;5079551;28;20464;-57
2022/07/11 06:04:09;;;;;;;8.10;4.60;;;19.10;1.00;;;;;;5073722;28;20407;-57
2022/07/11 06:06:35;;;;;;;7.90;4.33;;;19.10;1.00;;;;;;5068562;28;20412;-57
2022/07/11 06:09:00;;;;;;;9.00;4.20;;;19.20;1.00;;;;;;5070587;28;20471;-56
2022/07/11 06:11:26;;;;;;;8.75;4.40;;;19.40;1.00;;;;;;5071168;28;20945;-56
2022/07/11 06:13:51;;;;;;;9.20;4.40;;;19.60;1.00;;;;;;5077690;28;20494;-57
2022/07/11 06:16:17;;;;;;;9.38;4.47;;;19.90;1.00;;;;;;5072392;28;20502;-57
2022/07/11 06:18:44;;;;;;;9.30;4.87;;;20.00;1.00;;;;;;5089535;28;20366;-57
2022/07/11 06:21:11;;;;;;;7.83;4.40;;;20.10;1.00;;;;;;5073622;28;20394;-58
2022/07/11 06:23:36;;;;;;;8.40;4.20;;;20.20;1.00;;;;;;5075280;28;20403;-58
2022/07/11 06:26:03;;;;;;;9.45;4.05;;;20.20;1.00;;;;;;5082014;28;20409;-57
2022/07/11 06:28:28;;;;;;;8.55;3.92;;;20.40;1.00;;;;;;5087868;28;20503;-57
2022/07/11 06:30:54;;;;;;;8.40;4.15;;;20.50;1.00;;;;;;5071684;28;20431;-58
2022/07/11 06:33:20;;;;;;;7.87;4.20;;;20.80;1.00;;;;;;5081274;28;20463;-57
2022/07/11 06:35:47;;;;;;;8.52;3.85;;;22.10;1.00;;;;;;5070237;28;20975;-58
2022/07/11 06:38:14;;;;;;;7.70;3.40;;;21.40;1.00;;;;;;5081123;28;20872;-57
2022/07/11 06:40:41;;;;;;;7.72;4.43;;;21.50;1.00;;;;;;5069167;28;20463;-57
2022/07/11 06:43:08;;;;;;;10.80;4.20;;;21.50;1.00;;;;;;5070033;28;20380;-57
2022/07/11 06:45:34;;;;;;;8.85;4.20;;;21.30;1.00;;;;;;5069279;28;20395;-57
2022/07/11 06:48:00;;;;;;;8.20;4.28;;;21.30;1.00;;;;;;5073193;28;20749;-57
2022/07/11 06:50:25;;;;;;;7.70;3.70;;;21.40;1.00;;;;;;5068537;28;20926;-57
2022/07/11 06:52:51;;;;;;;8.47;3.90;;;21.60;1.00;;;;;;5077838;28;20390;-57
2022/07/11 06:55:17;;;;;;;8.10;3.80;;;22.10;99.90;;;;;;5075681;28;20402;-57
2022/07/11 06:57:43;;;;;;;8.18;4.20;;;22.50;99.90;;;;;;5079218;28;20427;-57
2022/07/11 07:00:09;;;;;;;8.52;3.90;;;22.60;99.90;;;;;;5081271;28;20394;-58
2022/07/11 07:02:35;;;;;;;7.90;3.40;;;22.70;99.90;;;;;;5070274;28;20803;-57
2022/07/11 07:05:01;;;;;;;8.88;3.58;;;23.00;99.90;;;;;;5070290;28;20391;-57
2022/07/11 07:07:27;;;;;;;8.65;3.45;;;23.20;99.90;;;;;;5083352;28;20440;-57
2022/07/11 07:09:53;;;;;;;7.80;3.15;;;23.40;99.90;;;;;;5078324;28;20936;-57
2022/07/11 07:12:20;;;;;;;7.97;2.85;;;23.90;99.90;;;;;;5080298;28;20410;-59
2022/07/11 07:14:45;;;;;;;6.82;3.00;;;23.80;99.90;;;;;;5074372;28;20748;-57
2022/07/11 07:17:11;;;;;;;6.80;3.00;;;23.70;99.90;;;;;;5082904;28;20936;-57
2022/07/11 07:19:36;;;;;;;7.00;3.00;;;23.60;99.90;;;;;;5075125;28;20403;-57
2022/07/11 07:22:02;;;;;;;6.83;2.50;;;23.30;99.90;;;;;;5081707;28;20797;-57
2022/07/11 07:24:28;;;;;;;7.23;3.20;;;23.40;99.90;;;;;;5087236;28;20422;-57
2022/07/11 07:26:54;;;;;;;6.90;3.40;;;23.40;99.90;;;;;;5087168;28;20440;-57
2022/07/11 07:29:20;;;;;;;7.73;2.97;;;23.20;99.90;;;;;;5087992;28;20441;-57
2022/07/11 07:31:46;;;;;;;7.20;2.80;;;23.30;99.90;;;;;;5082859;28;20426;-57
2022/07/11 07:34:12;;;;;;;8.82;3.40;;;23.20;99.90;;;;;;5069449;28;20427;-57
2022/07/11 07:36:37;;;;;;;8.30;2.70;;;23.10;99.90;;;;;;5068178;28;20907;-57
2022/07/11 07:39:03;;;;;;;6.83;2.10;;;23.20;99.90;;;;;;5068706;28;20407;-57
2022/07/11 07:41:29;;;;;;;6.07;2.30;;;23.50;99.90;;;;;;5075793;28;20378;-57
2022/07/11 07:43:54;;;;;;;6.00;1.87;;;23.40;99.90;;;;;;5081664;28;20456;-57
2022/07/11 07:46:20;;;;;;;5.47;1.70;;;23.20;99.90;;;;;;5075010;28;20814;-57
2022/07/11 07:48:46;;;;;;;7.60;1.70;;;23.00;99.90;;;;;;5088549;28;20547;-58
2022/07/11 07:51:11;;;;;;;5.60;1.60;;;23.60;99.90;;;;;;5088532;28;20720;-58
2022/07/11 07:53:37;;;;;;;5.70;1.60;;;24.30;99.90;;;;;;5086389;28;20835;-58
2022/07/11 07:56:04;;;;;;;5.80;1.50;;;25.00;99.90;;;;;;5085000;28;20419;-58
2022/07/11 07:58:30;;;;;;;5.40;1.35;;;25.80;99.90;;;;;;5073259;28;20396;-58
2022/07/11 08:03:40;;;;;;;5.57;1.77;;;26.10;99.90;;;;;;5070827;28;20386;-58
2022/07/11 08:06:06;;;;;;;5.90;1.70;;;26.70;99.90;;;;;;5084335;28;20403;-58
2022/07/11 08:08:31;;;;;;;5.20;1.30;;;27.60;99.90;;;;;;5068021;28;20753;-58
2022/07/11 08:11:00;;;;;;;5.83;1.80;;;27.80;99.90;;;;;;5071803;28;20786;-58
2022/07/11 08:13:26;;;;;;;6.03;2.03;;;27.80;99.90;;;;;;5083596;28;20486;-58
2022/07/11 08:15:52;;;;;;;6.90;1.60;;;28.10;99.90;;;;;;5068555;28;20412;-58
2022/07/11 08:18:18;;;;;;;5.80;1.90;;;27.70;99.90;;;;;;5085961;28;20393;-58
2022/07/11 08:20:43;;;;;;;5.53;1.90;;;27.20;99.90;;;;;;5082388;28;20399;-58
2022/07/11 08:23:09;;;;;;;5.10;1.40;;;27.10;99.90;;;;;;5085283;28;20395;-59
2022/07/11 08:25:35;;;;;;;6.85;1.50;;;26.80;99.90;;;;;;5068294;28;20447;-58
2022/07/11 08:28:00;;;;;;;5.60;1.30;;;26.80;99.90;;;;;;5086569;28;20412;-58
2022/07/11 08:30:26;;;;;;;7.10;1.55;;;27.10;99.90;;;;;;5069011;28;20417;-57
2022/07/11 08:32:52;;;;;;;5.40;1.23;;;27.60;99.90;;;;;;5071574;28;20412;-58
2022/07/11 08:35:18;;;;;;;5.60;1.50;;;28.00;99.90;;;;;;5076488;28;20383;-59
2022/07/11 08:37:44;;;;;;;4.90;1.40;;;28.50;99.90;;;;;;5078981;28;20413;-58
2022/07/11 08:40:10;;;;;;;5.00;1.40;;;28.20;99.90;;;;;;5077304;28;20876;-59
2022/07/11 08:42:45;;;;;;;5.30;1.90;;;28.50;99.90;;;;;;5068589;28;20446;-59
2022/07/11 08:45:15;;;;;;;5.30;2.20;;;29.50;99.90;;;;;;5077803;28;20876;-59
2022/07/11 08:47:41;;;;;;;5.68;2.63;;;30.00;99.90;;;;;;5076480;28;20470;-59
2022/07/11 08:50:08;;;;;;;5.60;2.50;;;30.10;99.90;;;;;;5068611;28;20793;-60
2022/07/11 08:52:34;;;;;;;6.25;1.80;;;29.10;99.90;;;;;;5086098;28;20588;-58
2022/07/11 08:55:00;;;;;;;5.27;2.00;;;27.70;99.90;;;;;;5086381;28;20477;-58
2022/07/11 08:57:26;;;;;;;5.10;1.87;;;28.10;99.90;;;;;;5076033;28;20950;-58
2022/07/11 08:59:55;;;;;;;5.20;1.87;;;29.50;99.90;;;;;;5071423;28;20391;-59
2022/07/11 09:02:22;;;;;;;6.03;2.17;;;30.50;99.90;;;;;;5070401;28;20431;-59
2022/07/11 09:04:48;;;;;;;5.60;2.72;;;31.50;99.90;;;;;;5068435;28;20495;-59
2022/07/11 09:07:14;;;;;;;5.90;3.30;;;32.40;99.90;;;;;;5084418;28;20505;-59
2022/07/11 09:09:40;;;;;;;5.50;1.73;;;33.00;99.90;;;;;;5069625;28;20394;-59
2022/07/11 09:12:14;;;;;;;6.30;3.10;;;32.60;99.90;;;;;;5074987;28;20393;-59
2022/07/11 09:14:49;;;;;;;5.50;2.85;;;32.30;99.90;;;;;;5071462;28;20936;-61
2022/07/11 09:17:15;;;;;;;6.70;3.00;;;33.00;99.90;;;;;;5082715;28;20409;-59
2022/07/11 09:19:41;;;;;;;6.47;3.60;;;33.00;99.90;;;;;;5082945;28;20402;-59
2022/07/11 09:27:45;;;;;;;6.40;3.30;;;29.50;99.90;;;;;;5081399;28;20539;-59
2022/07/11 09:30:25;;;;;;;6.20;3.10;;;29.10;99.90;;;;;;5072096;28;20393;-59
2022/07/11 09:32:55;;;;;;;5.95;3.00;;;28.20;99.90;;;;;;5089135;28;20386;-59
2022/07/11 09:35:26;;;;;;;5.85;3.30;;;27.60;99.90;;;;;;5079379;28;20855;-59
2022/07/11 09:37:52;;;;;;;6.20;3.07;;;27.80;99.90;;;;;;5086872;28;20775;-59
2022/07/11 09:40:19;;;;;;;5.80;2.53;;;27.40;99.90;;;;;;5089350;28;20450;-59
2022/07/11 09:42:52;;;;;;;5.50;2.50;;;27.30;99.90;;;;;;5084746;28;20506;-59
2022/07/11 09:45:19;;;;;;;6.00;3.25;;;26.80;99.90;;;;;;5081471;28;20922;-59
2022/07/11 09:47:47;;;;;;;6.07;3.15;;;27.30;99.90;;;;;;5079940;28;20481;-59
2022/07/11 09:50:17;;;;;;;6.00;2.33;;;28.20;99.90;;;;;;5081259;28;20392;-59
2022/07/11 09:52:44;;;;;;;5.90;2.50;;;29.20;99.90;;;;;;5071627;28;20539;-59
2022/07/11 09:55:09;;;;;;;7.40;2.40;;;30.00;99.90;;;;;;5076110;28;20467;-58
2022/07/11 09:57:37;;;;;;;6.00;3.00;;;28.60;99.90;;;;;;5076273;28;20457;-59
2022/07/11 10:00:04;;;;;;;7.20;3.40;;;28.00;99.90;;;;;;5070866;28;20387;-59
2022/07/11 10:02:31;;;;;;;6.07;3.08;;;28.00;99.90;;;;;;5071095;28;20473;-59
2022/07/11 10:04:59;;;;;;;5.97;3.00;;;27.90;99.90;;;;;;5080789;28;20384;-59
2022/07/11 10:07:24;;;;;;;6.10;2.85;;;27.80;99.90;;;;;;5071099;28;20390;-59
2022/07/11 10:09:50;;;;;;;5.70;2.88;;;27.90;99.90;;;;;;5084947;28;20462;-58
2022/07/11 10:12:16;;;;;;;5.50;2.60;;;27.80;99.90;;;;;;5090728;28;20397;-59
2022/07/11 10:14:43;;;;;;;5.80;3.03;;;26.90;99.90;;;;;;5070325;28;20387;-59
2022/07/11 10:17:25;;;;;;;6.05;3.00;;;27.50;99.90;;;;;;5070712;28;20410;-59
2022/07/11 10:20:31;;;;;;;5.60;2.90;;;27.90;99.90;;;;;;5068930;28;20388;-59
2022/07/11 10:23:06;;;;;;;5.70;2.70;;;28.10;99.90;;;;;;5045862;28;20405;-59
2022/07/11 10:25:50;;;;;;;5.50;2.50;;;28.20;99.90;;;;;;5069964;28;20489;-59
2022/07/11 10:28:25;;;;;;;5.97;2.83;;;28.40;99.90;;;;;;5070797;28;20458;-59
2022/07/11 10:30:55;;;;;;;5.60;3.00;;;28.70;99.90;;;;;;5070233;28;20441;-58
2022/07/11 10:33:21;;;;;;;5.80;3.20;;;28.50;99.90;;;;;;5068941;28;20384;-58
2022/07/11 10:35:50;;;;;;;5.70;3.10;;;28.60;99.90;;;;;;5085740;28;20532;-59
2022/07/11 10:38:17;;;;;;;5.60;2.80;;;28.80;99.90;;;;;;5090188;28;20875;-58
2022/07/11 10:40:57;;;;;;;5.10;2.40;;;28.70;99.90;;;;;;5089470;28;20382;-58
2022/07/11 10:43:38;;;;;;;5.20;2.28;;;28.40;99.90;;;;;;5090417;28;20519;-58
2022/07/11 10:46:08;;;;;;;8.10;3.20;;;27.20;99.90;;;;;;5077508;28;20435;-56
2022/07/11 10:49:02;;;;;;;16.02;5.00;;;28.30;99.90;;;;;;5071862;28;20473;-56
2022/07/11 10:51:46;;;;;;;5.93;2.70;;;28.80;99.90;;;;;;5076053;28;20841;-59
2022/07/11 10:54:42;;;;;;;5.80;2.60;;;29.20;99.90;;;;;;5069471;28;20444;-56
2022/07/11 10:57:25;;;;;;;6.97;3.33;;;29.00;99.90;;;;;;5069717;28;20411;-56
2022/07/11 11:00:04;;;;;;;6.65;3.00;;;28.60;99.90;;;;;;5069274;28;20388;-56
2022/07/11 11:02:31;;;;;;;6.50;3.33;;;28.50;99.90;;;;;;5068944;28;20725;-58
2022/07/11 11:05:00;;;;;;;5.80;2.50;;;27.90;99.90;;;;;;5069646;28;20421;-56
2022/07/11 11:07:44;;;;;;;7.60;3.55;;;27.20;99.90;;;;;;5069662;28;20393;-59
2022/07/11 11:10:34;;;;;;;6.20;3.20;;;26.80;99.90;;;;;;5069809;28;20408;-56
2022/07/11 11:13:10;;;;;;;6.10;3.40;;;27.00;99.90;;;;;;5069879;28;20725;-57
2022/07/11 11:15:45;;;;;;;6.50;3.70;;;26.70;99.90;;;;;;5068840;28;20387;-56
2022/07/11 11:18:23;;;;;;;7.55;3.20;;;26.90;99.90;;;;;;5068181;28;20695;-56
2022/07/11 11:21:00;;;;;;;6.70;3.70;;;27.10;99.90;;;;;;5072500;28;20467;-56
2022/07/11 11:23:32;;;;;;;7.63;3.25;;;26.80;99.90;;;;;;5085589;28;20386;-60
2022/07/11 11:26:05;;;;;;;6.75;3.75;;;26.60;99.90;;;;;;5089028;28;20405;-57
2022/07/11 11:28:31;;;;;;;6.40;3.60;;;27.20;99.90;;;;;;5083932;28;20884;-57
2022/07/11 11:30:59;;;;;;;7.30;3.38;;;27.60;99.90;;;;;;5070601;28;20483;-57
2022/07/11 11:33:31;;;;;;;6.60;4.10;;;27.60;99.90;;;;;;5084343;28;20468;-57
2022/07/11 11:36:09;;;;;;;6.13;3.15;;;27.50;99.90;;;;;;5069465;28;20778;-56
2022/07/11 11:38:37;;;;;;;6.90;3.63;;;27.80;99.90;;;;;;5068299;28;20469;-56
2022/07/11 11:41:05;;;;;;;6.10;3.40;;;28.00;99.90;;;;;;5068203;28;20376;-56
2022/07/11 11:43:31;;;;;;;6.30;3.47;;;28.20;99.90;;;;;;5067862;28;20894;-56
2022/07/11 11:45:57;;;;;;;6.40;3.13;;;28.70;99.90;;;;;;5063768;28;20549;-55
2022/07/11 11:48:30;;;;;;;6.90;3.35;;;28.60;99.90;;;;;;5069019;28;20368;-55
2022/07/11 11:51:04;;;;;;;7.53;3.50;;;27.40;99.90;;;;;;5068684;28;20857;-55
2022/07/11 11:53:47;;;;;;;6.20;3.05;;;27.60;99.90;;;;;;5069240;28;20416;-56
2022/07/11 11:56:29;;;;;;;6.40;2.80;;;27.80;99.90;;;;;;5066255;28;20426;-56
2022/07/11 11:59:01;;;;;;;6.90;3.90;;;28.20;99.90;;;;;;5085895;28;20469;-56
2022/07/11 12:01:29;;;;;;;6.93;3.70;;;27.70;99.90;;;;;;5077724;28;20409;-59
2022/07/11 12:03:59;;;;;;;7.93;3.60;;;27.70;99.90;;;;;;5079003;28;20376;-56
2022/07/11 12:06:29;;;;;;;7.55;3.45;;;27.70;99.90;;;;;;5047831;28;20400;-56
2022/07/11 12:09:00;;;;;;;6.05;3.00;;;28.20;99.90;;;;;;5069734;28;20400;-56
2022/07/11 12:11:26;;;;;;;6.88;3.00;;;28.50;99.90;;;;;;5066483;28;20387;-58
2022/07/11 12:14:01;;;;;;;6.57;3.20;;;28.40;99.90;;;;;;5067433;28;20492;-57
2022/07/11 12:16:41;;;;;;;7.28;3.47;;;28.40;99.90;;;;;;5067954;28;20803;-58
2022/07/11 12:19:12;;;;;;;6.43;3.60;;;28.10;99.90;;;;;;5074001;28;20384;-56
2022/07/11 12:21:40;;;;;;;7.10;3.50;;;27.80;99.90;;;;;;5070600;28;20382;-58
2022/07/11 12:24:08;;;;;;;6.60;3.38;;;27.60;99.90;;;;;;5069652;28;20485;-56
2022/07/11 12:26:36;;;;;;;7.93;3.58;;;27.40;99.90;;;;;;5070587;28;20409;-55
2022/07/11 12:29:22;;;;;;;6.38;3.70;;;27.70;99.90;;;;;;5066101;28;20439;-56
2022/07/11 12:31:54;;;;;;;7.00;3.50;;;27.80;99.90;;;;;;5074920;28;20382;-55
2022/07/11 12:34:22;;;;;;;7.20;3.45;;;27.50;99.90;;;;;;5060298;28;20454;-57
2022/07/11 12:36:49;;;;;;;7.40;3.60;;;27.40;99.90;;;;;;5060962;28;20448;-56
2022/07/11 12:39:28;;;;;;;6.70;3.35;;;27.70;99.90;;;;;;5069680;28;20422;-55
2022/07/11 12:41:55;;;;;;;6.53;3.70;;;27.70;99.90;;;;;;5068117;28;20380;-55
2022/07/11 12:47:10;;;;;;;7.25;3.70;;;27.70;99.90;;;;;;5087718;28;20577;-56
2022/07/11 12:49:36;;;;;;;7.17;3.30;;;27.70;99.90;;;;;;5087770;28;20793;-56
2022/07/11 12:52:02;;;;;;;8.07;3.87;;;28.10;99.90;;;;;;5078205;28;20382;-55
2022/07/11 12:54:33;;;;;;;8.70;3.70;;;28.00;99.90;;;;;;5083892;28;20459;-58
2022/07/11 12:57:03;;;;;;;6.00;3.42;;;27.90;99.90;;;;;;5063622;28;20420;-56
2022/07/11 12:59:31;;;;;;;7.93;3.50;;;27.80;99.90;;;;;;5069127;28;20800;-58
2022/07/11 13:02:07;;;;;;;8.20;3.38;;;28.00;99.90;;;;;;5058465;28;20399;-56
2022/07/11 13:04:40;;;;;;;7.87;3.80;;;27.50;99.90;;;;;;5068853;28;20462;-57
2022/07/11 13:10:15;;;;;;;6.15;3.20;;;27.50;99.90;;;;;;5065082;28;20402;-56
2022/07/11 13:12:42;;;;;;;7.43;3.90;;;27.90;99.90;;;;;;5055418;28;20411;-58